createdAt,value
2019-03-22T14:43:40.011Z,100886.08
2019-03-22T14:46:11.201Z,100901.63
2019-03-22T14:48:46.523Z,100899.75
2019-03-22T14:51:18.466Z,100898.25
2019-03-22T14:53:49.658Z,100909.66
2019-03-22T14:56:20.858Z,100912.03
2019-03-22T14:58:53.466Z,100918.49
2019-03-22T15:01:24.448Z,100917.28
2019-03-22T15:03:58.155Z,100918.14
2019-03-22T15:06:30.735Z,100921.24
2019-03-22T15:09:02.806Z,100919.48
2019-03-22T15:11:33.747Z,100927.28
2019-03-22T15:14:07.243Z,100926.53
2019-03-22T15:16:39.622Z,100935.84
2019-03-22T15:19:12.407Z,100938.28
2019-03-22T15:21:44.466Z,100949.41
2019-03-22T15:24:16.939Z,100949.02
2019-03-22T15:26:49.588Z,100953.17
2019-03-22T15:29:27.698Z,100946.62
2019-03-22T15:31:59.990Z,100957.41
2019-03-22T15:34:33.468Z,100948.75
2019-03-22T15:37:06.197Z,100945.22
2019-03-22T15:39:38.417Z,100948.27
2019-03-22T15:42:13.577Z,100952.14
2019-03-22T15:44:44.745Z,100941.58
2019-03-22T15:47:14.703Z,100935.22
2019-03-22T15:49:54.304Z,100928.42
2019-03-22T15:52:34.928Z,100928.16
2019-03-22T15:55:14.418Z,100920.46
2019-03-22T15:57:51.625Z,100924.69
2019-03-22T16:00:24.371Z,100934.48
2019-03-22T16:02:58.692Z,100935.37
2019-03-22T16:05:30.250Z,100931.70
2019-03-22T16:08:00.089Z,100935.42
2019-03-22T16:10:32.029Z,100934.23
2019-03-22T16:13:03.581Z,100936.62
2019-03-22T16:15:35.739Z,100934.73
2019-03-22T16:18:08.436Z,100929.16
2019-03-22T16:20:42.608Z,100938.10
2019-03-22T16:23:18.576Z,100931.12
2019-03-22T16:25:50.027Z,100928.41
2019-03-22T16:28:21.296Z,100923.41
2019-03-22T16:30:53.039Z,100920.11
2019-03-22T16:33:24.011Z,100914.53
2019-03-22T16:35:55.397Z,100917.05
2019-03-22T16:38:29.755Z,100921.17
2019-03-22T16:41:05.064Z,100919.66
2019-03-22T16:43:39.517Z,100921.35
2019-03-22T16:46:14.082Z,100914.79
2019-03-22T16:48:47.663Z,100921.03
2019-03-22T16:51:27.946Z,100919.97
2019-03-22T16:53:59.687Z,100920.29
2019-03-22T16:56:31.297Z,100915.34
2019-03-22T16:59:03.131Z,100911.22
2019-03-22T17:01:34.018Z,100903.88
2019-03-22T17:04:10.329Z,100904.84
2019-03-22T17:06:41.749Z,100896.50
2019-03-22T17:09:20.059Z,100887.93
2019-03-22T17:11:51.702Z,100880.31
2019-03-22T17:14:26.448Z,100883.02
2019-03-22T17:16:58.675Z,100888.15
2019-03-22T17:19:31.654Z,100874.31
2019-03-22T17:22:03.154Z,100868.44
2019-03-22T17:24:34.430Z,100876.92
2019-03-22T17:27:07.142Z,100876.50
2019-03-22T17:29:38.262Z,100880.87
2019-03-22T17:32:10.370Z,100876.55
2019-03-22T17:34:48.317Z,100882.24
2019-03-22T17:37:20.002Z,100875.95
2019-03-22T17:39:51.837Z,100870.73
2019-03-22T17:42:30.558Z,100870.73
2019-03-22T17:45:01.872Z,100864.44
2019-03-22T17:47:33.777Z,100855.37
2019-03-22T17:50:04.558Z,100854.55
2019-03-22T17:52:35.936Z,100851.88
2019-03-22T17:55:07.058Z,100851.11
2019-03-22T17:57:38.593Z,100853.17
2019-03-22T18:00:11.174Z,100845.37
2019-03-22T18:02:43.399Z,100849.18
2019-03-22T18:05:17.593Z,100839.00
2019-03-22T18:07:48.871Z,100832.73
2019-03-22T18:10:20.885Z,100829.92
2019-03-22T18:12:52.319Z,100823.37
2019-03-22T18:15:24.153Z,100828.09
2019-03-22T18:17:57.551Z,100817.09
2019-03-22T18:20:29.220Z,100813.55
2019-03-22T18:23:01.107Z,100802.47
2019-03-22T18:25:39.475Z,100808.11
2019-03-22T18:28:13.814Z,100806.83
2019-03-22T18:30:45.300Z,100804.32
2019-03-22T18:33:15.812Z,100803.86
2019-03-22T18:35:48.257Z,100798.87
2019-03-22T18:38:19.282Z,100801.02
2019-03-22T18:40:50.709Z,100800.01
2019-03-22T18:43:28.901Z,100799.19
2019-03-22T18:46:00.939Z,100801.62
2019-03-22T18:48:32.376Z,100802.61
2019-03-22T18:51:03.232Z,100803.66
2019-03-22T18:53:34.930Z,100797.68
2019-03-22T18:56:13.659Z,100803.45
2019-03-22T18:58:45.699Z,100800.00
2019-03-22T19:01:18.069Z,100795.83
2019-03-22T19:03:49.677Z,100791.70
2019-03-22T19:06:21.925Z,100789.83
2019-03-22T19:08:53.614Z,100789.93
2019-03-22T19:11:26.085Z,100795.44
2019-03-22T19:13:57.534Z,100790.23
2019-03-22T19:16:28.927Z,100790.02
2019-03-22T19:19:05.554Z,100784.68
2019-03-22T19:21:37.044Z,100779.41
2019-03-22T19:24:08.453Z,100775.05
2019-03-22T19:26:39.740Z,100766.56
2019-03-22T19:29:11.316Z,100765.87
2019-03-22T19:31:42.578Z,100762.18
2019-03-22T19:34:19.844Z,100761.48
2019-03-22T19:36:58.765Z,100761.98
2019-03-22T19:39:29.960Z,100757.86
2019-03-22T19:42:08.625Z,100755.37
2019-03-22T19:44:40.621Z,100758.47
2019-03-22T19:47:11.952Z,100756.59
2019-03-22T19:49:43.446Z,100757.73
2019-03-22T19:52:15.012Z,100755.96
2019-03-22T19:54:46.386Z,100761.56
2019-03-22T19:57:17.550Z,100761.56
2019-03-22T19:59:50.069Z,100755.24
2019-03-22T20:02:21.367Z,100754.32
2019-03-22T20:04:52.186Z,100750.33
2019-03-22T20:07:27.028Z,100749.32
2019-03-22T20:09:57.521Z,100748.31
2019-03-22T20:12:29.204Z,100750.94
2019-03-22T20:15:00.357Z,100757.94
2019-03-22T20:17:31.731Z,100755.20
2019-03-22T20:20:02.928Z,100754.00
2019-03-22T20:22:34.250Z,100751.76
2019-03-22T20:25:12.741Z,100755.93
2019-03-22T20:27:44.258Z,100753.31
2019-03-22T20:30:26.681Z,100752.36
2019-03-22T20:32:57.962Z,100751.07
2019-03-22T20:35:29.563Z,100737.83
2019-03-22T20:38:00.566Z,100740.39
2019-03-22T20:40:32.135Z,100739.07
2019-03-22T20:43:03.247Z,100740.20
2019-03-22T20:45:34.331Z,100731.69
2019-03-22T20:48:05.357Z,100732.33
2019-03-22T20:50:45.468Z,100735.81
2019-03-22T20:53:17.012Z,100740.62
2019-03-22T20:55:55.726Z,100735.13
2019-03-22T20:58:27.434Z,100735.63
2019-03-22T21:01:06.619Z,100735.45
2019-03-22T21:03:38.246Z,100734.31
2019-03-22T21:06:09.934Z,100734.31
2019-03-22T21:08:41.134Z,100746.81
2019-03-22T21:11:12.805Z,100745.30
2019-03-22T21:13:49.669Z,100755.61
2019-03-22T21:16:21.142Z,100756.84
2019-03-22T21:18:51.568Z,100760.90
2019-03-22T21:21:28.008Z,100757.44
2019-03-22T21:23:55.653Z,100760.23
2019-03-22T21:26:27.243Z,100760.38
2019-03-22T21:28:58.384Z,100762.56
2019-03-22T21:31:36.663Z,100757.62
2019-03-22T21:34:08.544Z,100768.75
2019-03-22T21:36:46.945Z,100768.48
2019-03-22T21:39:18.479Z,100763.36
2019-03-22T21:41:54.435Z,100769.52
2019-03-22T21:44:32.859Z,100767.61
2019-03-22T21:47:04.623Z,100763.12
2019-03-22T21:49:37.115Z,100768.20
2019-03-22T21:52:07.815Z,100776.18
2019-03-22T21:54:42.576Z,100778.78
2019-03-22T21:57:14.323Z,100775.91
2019-03-22T21:59:55.657Z,100771.41
2019-03-22T22:02:34.426Z,100782.41
2019-03-22T22:05:06.398Z,100782.90
2019-03-22T22:07:38.118Z,100772.97
2019-03-22T22:10:10.085Z,100783.92
2019-03-22T22:12:48.743Z,100784.14
2019-03-22T22:15:19.997Z,100780.03
2019-03-22T22:17:58.911Z,100774.41
2019-03-22T22:20:30.048Z,100781.84
2019-03-22T22:23:01.660Z,100780.64
2019-03-22T22:25:37.632Z,100794.67
2019-03-22T22:28:10.500Z,100788.95
2019-03-22T22:30:43.023Z,100785.67
2019-03-22T22:33:22.585Z,100793.75
2019-03-22T22:35:58.557Z,100793.37
2019-03-22T22:38:27.548Z,100799.69
2019-03-22T22:40:59.854Z,100795.42
2019-03-22T22:43:32.851Z,100803.73
2019-03-22T22:46:10.536Z,100809.36
2019-03-22T22:48:42.135Z,100811.72
2019-03-22T22:51:13.384Z,100810.22
2019-03-22T22:53:44.903Z,100815.44
2019-03-22T22:56:15.788Z,100815.63
2019-03-22T22:58:47.572Z,100825.52
2019-03-22T23:01:18.234Z,100829.59
2019-03-22T23:03:49.587Z,100835.95
2019-03-22T23:06:19.922Z,100842.41
2019-03-22T23:08:51.057Z,100842.56
2019-03-22T23:11:22.216Z,100846.53
2019-03-22T23:13:54.829Z,100847.12
2019-03-22T23:16:27.458Z,100854.61
2019-03-22T23:19:05.483Z,100861.01
2019-03-22T23:21:37.022Z,100863.59
2019-03-22T23:24:16.775Z,100873.38
2019-03-22T23:26:56.553Z,100875.17
2019-03-22T23:29:28.702Z,100882.08
2019-03-22T23:32:00.218Z,100882.13
2019-03-22T23:34:31.666Z,100892.23
2019-03-22T23:37:09.773Z,100891.73
2019-03-22T23:39:41.601Z,100899.42
2019-03-22T23:42:13.656Z,100906.92
2019-03-22T23:44:45.068Z,100907.78
2019-03-22T23:47:16.449Z,100913.31
2019-03-22T23:49:48.797Z,100917.88
2019-03-22T23:52:19.958Z,100918.45
2019-03-22T23:54:51.687Z,100913.31
2019-03-22T23:57:23.352Z,100923.48
